sensor_id;sensor_type;location;lat;lon;timestamp;pressure;altitude;pressure_sealevel;temperature;humidity
77003;BME280;65939;50.060;14.288;2023-02-19T00:01:13;97263.25;;;8.55;87.58
77003;BME280;65939;50.060;14.288;2023-02-19T00:03:14;97259.94;;;8.53;88.63
77003;BME280;65939;50.060;14.288;2023-02-19T00:05:15;97261.09;;;8.51;88.89
77003;BME280;65939;50.060;14.288;2023-02-19T00:07:15;97258.75;;;8.48;88.81
77003;BME280;65939;50.060;14.288;2023-02-19T00:09:18;97246.84;;;8.45;89.17
77003;BME280;65939;50.060;14.288;2023-02-19T00:11:21;97240.28;;;8.41;88.94
77003;BME280;65939;50.060;14.288;2023-02-19T00:13:22;97236.31;;;8.37;89.38
77003;BME280;65939;50.060;14.288;2023-02-19T00:15:23;97227.16;;;8.33;88.32
77003;BME280;65939;50.060;14.288;2023-02-19T00:17:24;97224.84;;;8.30;88.89
77003;BME280;65939;50.060;14.288;2023-02-19T00:19:24;97229.34;;;8.28;89.58
77003;BME280;65939;50.060;14.288;2023-02-19T00:21:25;97230.31;;;8.27;89.30
77003;BME280;65939;50.060;14.288;2023-02-19T00:23:26;97242.78;;;8.23;89.52
77003;BME280;65939;50.060;14.288;2023-02-19T00:25:27;97230.75;;;8.22;89.40
77003;BME280;65939;50.060;14.288;2023-02-19T00:27:28;97241.28;;;8.21;89.96
77003;BME280;65939;50.060;14.288;2023-02-19T00:29:28;97225.97;;;8.18;90.21
77003;BME280;65939;50.060;14.288;2023-02-19T00:31:33;97241.72;;;8.16;89.28
77003;BME280;65939;50.060;14.288;2023-02-19T00:33:34;97241.84;;;8.14;89.62
77003;BME280;65939;50.060;14.288;2023-02-19T00:35:35;97228.03;;;8.14;89.83
77003;BME280;65939;50.060;14.288;2023-02-19T00:37:35;97227.22;;;8.13;90.53
77003;BME280;65939;50.060;14.288;2023-02-19T00:39:36;97234.03;;;8.14;89.40
77003;BME280;65939;50.060;14.288;2023-02-19T00:41:36;97236.66;;;8.14;90.13
77003;BME280;65939;50.060;14.288;2023-02-19T00:43:37;97220.38;;;8.12;89.42
77003;BME280;65939;50.060;14.288;2023-02-19T00:45:38;97223.81;;;8.13;88.86
77003;BME280;65939;50.060;14.288;2023-02-19T00:47:38;97226.41;;;8.13;89.27
77003;BME280;65939;50.060;14.288;2023-02-19T00:49:39;97224.63;;;8.13;88.32
77003;BME280;65939;50.060;14.288;2023-02-19T00:51:39;97220.38;;;8.12;88.56
77003;BME280;65939;50.060;14.288;2023-02-19T00:53:41;97214.22;;;8.13;88.19
77003;BME280;65939;50.060;14.288;2023-02-19T00:55:41;97213.41;;;8.13;87.89
77003;BME280;65939;50.060;14.288;2023-02-19T00:57:42;97217.09;;;8.10;88.20
77003;BME280;65939;50.060;14.288;2023-02-19T00:59:43;97211.91;;;8.10;88.53
77003;BME280;65939;50.060;14.288;2023-02-19T01:01:43;97219.84;;;8.09;87.99
77003;BME280;65939;50.060;14.288;2023-02-19T01:03:45;97221.75;;;8.07;87.95
77003;BME280;65939;50.060;14.288;2023-02-19T01:05:46;97224.50;;;8.05;88.17
77003;BME280;65939;50.060;14.288;2023-02-19T01:07:46;97225.31;;;8.06;88.69
77003;BME280;65939;50.060;14.288;2023-02-19T01:09:47;97216.72;;;8.05;88.68
77003;BME280;65939;50.060;14.288;2023-02-19T01:11:47;97224.50;;;8.05;88.61
77003;BME280;65939;50.060;14.288;2023-02-19T01:13:48;97215.91;;;8.05;89.08
77003;BME280;65939;50.060;14.288;2023-02-19T01:15:48;97220.13;;;8.06;89.16
77003;BME280;65939;50.060;14.288;2023-02-19T01:17:49;97215.75;;;8.06;87.86
77003;BME280;65939;50.060;14.288;2023-02-19T01:19:50;97208.91;;;8.05;88.14
77003;BME280;65939;50.060;14.288;2023-02-19T01:21:50;97206.97;;;8.07;87.85
77003;BME280;65939;50.060;14.288;2023-02-19T01:23:52;97195.47;;;8.10;nan
77003;BME280;65939;50.060;14.288;2023-02-19T01:25:53;97194.66;;;8.09;87.53
77003;BME280;65939;50.060;14.288;2023-02-19T01:27:53;97193.69;;;8.10;88.35
77003;BME280;65939;50.060;14.288;2023-02-19T01:29:54;97188.50;;;8.10;87.98
77003;BME280;65939;50.060;14.288;2023-02-19T01:31:55;97187.56;;;8.11;88.47
77003;BME280;65939;50.060;14.288;2023-02-19T01:33:59;97187.25;;;8.14;87.83
77003;BME280;65939;50.060;14.288;2023-02-19T01:36:03;97184.63;;;8.14;88.45
77003;BME280;65939;50.060;14.288;2023-02-19T01:38:04;97171.50;;;8.16;88.27
77003;BME280;65939;50.060;14.288;2023-02-19T01:40:07;97169.44;;;8.20;88.07
77003;BME280;65939;50.060;14.288;2023-02-19T01:42:15;97168.34;;;8.22;87.68
77003;BME280;65939;50.060;14.288;2023-02-19T01:46:17;97157.34;;;8.28;88.04
77003;BME280;65939;50.060;14.288;2023-02-19T01:48:26;97166.66;;;8.31;87.08
77003;BME280;65939;50.060;14.288;2023-02-19T01:50:36;97162.13;;;8.33;87.57
77003;BME280;65939;50.060;14.288;2023-02-19T01:52:38;97170.47;;;8.36;87.86
77003;BME280;65939;50.060;14.288;2023-02-19T01:54:43;97169.38;;;8.39;86.86
77003;BME280;65939;50.060;14.288;2023-02-19T01:56:48;97166.47;;;8.42;86.71
77003;BME280;65939;50.060;14.288;2023-02-19T01:58:49;97155.94;;;8.44;87.63
77003;BME280;65939;50.060;14.288;2023-02-19T02:00:50;97155.78;;;8.45;86.68
77003;BME280;65939;50.060;14.288;2023-02-19T02:02:54;97156.47;;;8.47;87.06
77003;BME280;65939;50.060;14.288;2023-02-19T02:04:58;97141.69;;;8.48;86.34
77003;BME280;65939;50.060;14.288;2023-02-19T02:07:02;97147.53;;;8.50;86.73
77003;BME280;65939;50.060;14.288;2023-02-19T02:09:27;97144.00;;;8.51;86.29
77003;BME280;65939;50.060;14.288;2023-02-19T02:11:49;97139.59;;;8.51;86.84
77003;BME280;65939;50.060;14.288;2023-02-19T02:13:51;97131.81;;;8.51;86.64
77003;BME280;65939;50.060;14.288;2023-02-19T02:18:22;97132.47;;;8.53;86.72
77003;BME280;65939;50.060;14.288;2023-02-19T02:32:42;97091.44;;;8.65;85.66
77003;BME280;65939;50.060;14.288;2023-02-19T02:35:01;97082.81;;;8.65;86.46
77003;BME280;65939;50.060;14.288;2023-02-19T02:37:04;97067.22;;;8.65;85.99
77003;BME280;65939;50.060;14.288;2023-02-19T02:39:12;97067.22;;;8.65;86.07
77003;BME280;65939;50.060;14.288;2023-02-19T02:41:14;97062.00;;;8.65;86.13
77003;BME280;65939;50.060;14.288;2023-02-19T02:43:15;97057.75;;;8.63;86.32
77003;BME280;65939;50.060;14.288;2023-02-19T02:45:21;97056.81;;;8.65;85.97
77003;BME280;65939;50.060;14.288;2023-02-19T02:47:53;97053.22;;;8.66;85.97
77003;BME280;65939;50.060;14.288;2023-02-19T02:49:57;97055.81;;;8.66;85.84
77003;BME280;65939;50.060;14.288;2023-02-19T02:52:04;97045.41;;;8.66;85.89
77003;BME280;65939;50.060;14.288;2023-02-19T02:54:30;97057.47;;;8.67;85.54
77003;BME280;65939;50.060;14.288;2023-02-19T02:56:54;97050.63;;;8.66;85.93
77003;BME280;65939;50.060;14.288;2023-02-19T02:58:57;97056.13;;;8.62;85.45
77003;BME280;65939;50.060;14.288;2023-02-19T03:01:10;97055.97;;;8.64;85.42
77003;BME280;65939;50.060;14.288;2023-02-19T03:03:31;97051.72;;;8.63;85.83
77003;BME280;65939;50.060;14.288;2023-02-19T03:05:32;97049.13;;;8.63;86.09
77003;BME280;65939;50.060;14.288;2023-02-19T03:08:11;97034.50;;;8.62;85.38
77003;BME280;65939;50.060;14.288;2023-02-19T03:10:24;97028.31;;;8.63;86.16
77003;BME280;65939;50.060;14.288;2023-02-19T03:12:29;97016.94;;;8.64;85.46
77003;BME280;65939;50.060;14.288;2023-02-19T03:14:54;97008.97;;;8.66;85.72
77003;BME280;65939;50.060;14.288;2023-02-19T03:17:21;97009.13;;;8.64;86.02
77003;BME280;65939;50.060;14.288;2023-02-19T03:19:49;96990.09;;;8.63;85.13
77003;BME280;65939;50.060;14.288;2023-02-19T03:21:59;97000.50;;;8.63;85.33
77003;BME280;65939;50.060;14.288;2023-02-19T03:24:02;96989.28;;;8.63;85.84
77003;BME280;65939;50.060;14.288;2023-02-19T03:26:23;96996.09;;;8.64;85.50
77003;BME280;65939;50.060;14.288;2023-02-19T03:28:29;97000.19;;;8.67;85.79
77003;BME280;65939;50.060;14.288;2023-02-19T03:30:53;96989.78;;;8.67;85.56
77003;BME280;65939;50.060;14.288;2023-02-19T03:33:08;96977.75;;;8.66;84.89
77003;BME280;65939;50.060;14.288;2023-02-19T03:35:20;96975.97;;;8.66;84.75
77003;BME280;65939;50.060;14.288;2023-02-19T03:37:40;96970.59;;;8.68;85.65
77003;BME280;65939;50.060;14.288;2023-02-19T03:39:43;96970.59;;;8.68;85.55
77003;BME280;65939;50.060;14.288;2023-02-19T03:42:09;96960.19;;;8.68;85.05
77003;BME280;65939;50.060;14.288;2023-02-19T03:47:19;96962.16;;;8.66;84.32
77003;BME280;65939;50.060;14.288;2023-02-19T03:49:53;96986.22;;;8.68;84.88
77003;BME280;65939;50.060;14.288;2023-02-19T03:55:04;96994.03;;;8.68;84.35
77003;BME280;65939;50.060;14.288;2023-02-19T03:57:11;96990.97;;;8.72;84.85
77003;BME280;65939;50.060;14.288;2023-02-19T03:59:33;96996.72;;;8.76;84.33
77003;BME280;65939;50.060;14.288;2023-02-19T04:01:43;96986.13;;;8.77;84.42
77003;BME280;65939;50.060;14.288;2023-02-19T04:04:08;96991.19;;;8.79;84.02
77003;BME280;65939;50.060;14.288;2023-02-19T04:06:16;96996.91;;;8.82;84.78
77003;BME280;65939;50.060;14.288;2023-02-19T04:08:22;97007.97;;;8.84;84.33
77003;BME280;65939;50.060;14.288;2023-02-19T04:10:26;97009.31;;;8.88;84.38
77003;BME280;65939;50.060;14.288;2023-02-19T04:12:29;97000.38;;;8.91;84.27
77003;BME280;65939;50.060;14.288;2023-02-19T04:16:46;97001.88;;;8.94;83.72
77003;BME280;65939;50.060;14.288;2023-02-19T04:18:54;96989.50;;;8.96;83.84
77003;BME280;65939;50.060;14.288;2023-02-19T04:20:59;96991.97;;;8.97;83.85
77003;BME280;65939;50.060;14.288;2023-02-19T04:23:00;96985.78;;;8.98;83.07
77003;BME280;65939;50.060;14.288;2023-02-19T04:25:01;96985.63;;;9.00;83.59
77003;BME280;65939;50.060;14.288;2023-02-19T04:27:04;96975.22;;;9.00;83.19
77003;BME280;65939;50.060;14.288;2023-02-19T04:29:05;96987.13;;;9.02;82.87
77003;BME280;65939;50.060;14.288;2023-02-19T04:31:06;96974.91;;;9.03;82.95
77003;BME280;65939;50.060;14.288;2023-02-19T04:33:07;96975.41;;;9.06;82.80
77003;BME280;65939;50.060;14.288;2023-02-19T04:35:07;96975.09;;;9.09;82.98
77003;BME280;65939;50.060;14.288;2023-02-19T04:37:08;96972.19;;;9.13;82.97
77003;BME280;65939;50.060;14.288;2023-02-19T04:39:08;96978.38;;;9.11;82.44
77003;BME280;65939;50.060;14.288;2023-02-19T04:41:09;96973.19;;;9.11;82.00
77003;BME280;65939;50.060;14.288;2023-02-19T04:43:09;96976.44;;;9.14;82.78
77003;BME280;65939;50.060;14.288;2023-02-19T04:45:10;96966.00;;;9.14;82.37
77003;BME280;65939;50.060;14.288;2023-02-19T04:47:11;96969.28;;;9.16;82.80
77003;BME280;65939;50.060;14.288;2023-02-19T04:49:11;96964.09;;;9.16;82.29
77003;BME280;65939;50.060;14.288;2023-02-19T04:51:12;96964.09;;;9.16;82.27
77003;BME280;65939;50.060;14.288;2023-02-19T04:53:13;96967.50;;;9.16;81.89
77003;BME280;65939;50.060;14.288;2023-02-19T04:55:13;96963.28;;;9.15;82.10
77003;BME280;65939;50.060;14.288;2023-02-19T04:57:14;96958.88;;;9.16;82.82
77003;BME280;65939;50.060;14.288;2023-02-19T04:59:14;96950.09;;;9.17;82.07
77003;BME280;65939;50.060;14.288;2023-02-19T05:01:16;96955.16;;;9.18;82.53
77003;BME280;65939;50.060;14.288;2023-02-19T05:03:16;96957.75;;;9.18;82.48
77003;BME280;65939;50.060;14.288;2023-02-19T05:05:17;96955.28;;;9.17;82.18
77003;BME280;65939;50.060;14.288;2023-02-19T05:07:17;96953.38;;;9.19;82.31
77003;BME280;65939;50.060;14.288;2023-02-19T05:09:18;96950.75;;;9.19;82.53
77003;BME280;65939;50.060;14.288;2023-02-19T05:11:19;96941.97;;;9.20;82.34
77003;BME280;65939;50.060;14.288;2023-02-19T05:13:19;96925.34;;;9.21;82.24
77003;BME280;65939;50.060;14.288;2023-02-19T05:15:20;96939.19;;;9.21;82.01
77003;BME280;65939;50.060;14.288;2023-02-19T05:17:20;96935.78;;;9.21;81.57
77003;BME280;65939;50.060;14.288;2023-02-19T05:19:21;96935.63;;;9.22;81.79
77003;BME280;65939;50.060;14.288;2023-02-19T05:21:21;96929.44;;;9.23;82.29
77003;BME280;65939;50.060;14.288;2023-02-19T05:23:22;96944.25;;;9.23;81.75
77003;BME280;65939;50.060;14.288;2023-02-19T05:25:23;96943.44;;;9.22;82.38
77003;BME280;65939;50.060;14.288;2023-02-19T05:27:23;96950.13;;;9.25;82.14
77003;BME280;65939;50.060;14.288;2023-02-19T05:29:24;96940.69;;;9.24;82.35
77003;BME280;65939;50.060;14.288;2023-02-19T05:31:24;96946.69;;;9.24;81.80
77003;BME280;65939;50.060;14.288;2023-02-19T05:33:25;96941.47;;;9.24;82.26
77003;BME280;65939;50.060;14.288;2023-02-19T05:35:26;96947.69;;;9.23;82.02
77003;BME280;65939;50.060;14.288;2023-02-19T05:37:26;96951.09;;;9.24;81.99
77003;BME280;65939;50.060;14.288;2023-02-19T05:39:27;96948.50;;;9.24;81.90
77003;BME280;65939;50.060;14.288;2023-02-19T05:41:28;96960.41;;;9.26;81.62
77003;BME280;65939;50.060;14.288;2023-02-19T05:43:29;96950.78;;;9.27;82.01
77003;BME280;65939;50.060;14.288;2023-02-19T05:45:30;96950.13;;;9.25;81.73
77003;BME280;65939;50.060;14.288;2023-02-19T05:47:31;96958.91;;;9.24;82.29
77003;BME280;65939;50.060;14.288;2023-02-19T05:49:32;96950.28;;;9.23;81.91
77003;BME280;65939;50.060;14.288;2023-02-19T05:51:32;96946.19;;;9.21;81.69
77003;BME280;65939;50.060;14.288;2023-02-19T05:53:33;96948.16;;;9.19;81.72
77003;BME280;65939;50.060;14.288;2023-02-19T05:55:35;96953.38;;;9.19;81.99
77003;BME280;65939;50.060;14.288;2023-02-19T05:57:43;96959.38;;;9.19;82.43
77003;BME280;65939;50.060;14.288;2023-02-19T05:59:44;96956.59;;;9.21;81.45
77003;BME280;65939;50.060;14.288;2023-02-19T06:01:47;96947.00;;;9.21;82.32
77003;BME280;65939;50.060;14.288;2023-02-19T06:03:48;96954.69;;;9.23;81.70
77003;BME280;65939;50.060;14.288;2023-02-19T06:05:48;96953.69;;;9.24;81.61
77003;BME280;65939;50.060;14.288;2023-02-19T06:07:49;96944.09;;;9.24;82.15
77003;BME280;65939;50.060;14.288;2023-02-19T06:09:50;96944.09;;;9.24;81.60
77003;BME280;65939;50.060;14.288;2023-02-19T06:11:50;96941.34;;;9.26;81.37
77003;BME280;65939;50.060;14.288;2023-02-19T06:13:51;96936.28;;;9.24;81.60
77003;BME280;65939;50.060;14.288;2023-02-19T06:15:51;96944.25;;;9.23;81.40
77003;BME280;65939;50.060;14.288;2023-02-19T06:17:52;96943.44;;;9.22;80.68
77003;BME280;65939;50.060;14.288;2023-02-19T06:19:53;96950.44;;;9.22;80.54
77003;BME280;65939;50.060;14.288;2023-02-19T06:21:53;96941.97;;;9.20;80.65
77003;BME280;65939;50.060;14.288;2023-02-19T06:23:54;96949.09;;;9.18;80.81
77003;BME280;65939;50.060;14.288;2023-02-19T06:28:06;96942.56;;;9.14;80.47
77003;BME280;65939;50.060;14.288;2023-02-19T06:30:10;96951.38;;;9.13;80.56
77003;BME280;65939;50.060;14.288;2023-02-19T06:32:11;96969.59;;;9.13;80.21
77003;BME280;65939;50.060;14.288;2023-02-19T06:34:11;96965.06;;;9.15;80.81
77003;BME280;65939;50.060;14.288;2023-02-19T06:36:17;96947.47;;;9.17;80.85
77003;BME280;65939;50.060;14.288;2023-02-19T06:38:20;96957.41;;;9.21;80.79
77003;BME280;65939;50.060;14.288;2023-02-19T06:40:21;96952.88;;;9.23;80.57
77003;BME280;65939;50.060;14.288;2023-02-19T06:42:21;96952.06;;;9.23;81.14
77003;BME280;65939;50.060;14.288;2023-02-19T06:44:22;96953.56;;;9.25;80.36
77003;BME280;65939;50.060;14.288;2023-02-19T06:46:23;96954.19;;;9.27;80.77
77003;BME280;65939;50.060;14.288;2023-02-19T06:48:24;96958.28;;;9.30;80.55
77003;BME280;65939;50.060;14.288;2023-02-19T06:50:25;96959.78;;;9.32;80.80
77003;BME280;65939;50.060;14.288;2023-02-19T06:52:26;96957.81;;;9.34;80.33
77003;BME280;65939;50.060;14.288;2023-02-19T06:54:27;96951.31;;;9.39;80.23
77003;BME280;65939;50.060;14.288;2023-02-19T06:56:35;96967.63;;;9.41;80.20
77003;BME280;65939;50.060;14.288;2023-02-19T06:58:36;96961.28;;;9.43;80.65
77003;BME280;65939;50.060;14.288;2023-02-19T07:00:37;96960.16;;;9.46;79.94
77003;BME280;65939;50.060;14.288;2023-02-19T07:02:37;96960.81;;;9.48;79.62
77003;BME280;65939;50.060;14.288;2023-02-19T07:04:38;96959.03;;;9.48;79.29
77003;BME280;65939;50.060;14.288;2023-02-19T07:06:39;96954.47;;;9.50;79.37
77003;BME280;65939;50.060;14.288;2023-02-19T07:08:40;96957.09;;;9.50;79.29
77003;BME280;65939;50.060;14.288;2023-02-19T07:10:40;96974.34;;;9.51;79.09
77003;BME280;65939;50.060;14.288;2023-02-19T07:12:41;96957.72;;;9.52;79.10
77003;BME280;65939;50.060;14.288;2023-02-19T07:14:41;96967.19;;;9.53;78.67
77003;BME280;65939;50.060;14.288;2023-02-19T07:16:42;96978.94;;;9.57;78.46
77003;BME280;65939;50.060;14.288;2023-02-19T07:18:43;96990.00;;;9.59;79.27
77003;BME280;65939;50.060;14.288;2023-02-19T07:20:44;96994.09;;;9.62;78.91
77003;BME280;65939;50.060;14.288;2023-02-19T07:22:44;97000.00;;;9.64;78.70
77003;BME280;65939;50.060;14.288;2023-02-19T07:24:45;96994.28;;;9.69;78.46
77003;BME280;65939;50.060;14.288;2023-02-19T07:26:46;97002.13;;;9.69;78.55
77003;BME280;65939;50.060;14.288;2023-02-19T07:28:49;97016.13;;;9.68;78.38
77003;BME280;65939;50.060;14.288;2023-02-19T07:30:50;97011.56;;;9.70;78.60
77003;BME280;65939;50.060;14.288;2023-02-19T07:32:50;97015.66;;;9.72;78.85
77003;BME280;65939;50.060;14.288;2023-02-19T07:34:51;97018.25;;;9.72;78.19
77003;BME280;65939;50.060;14.288;2023-02-19T07:36:51;97009.31;;;9.75;78.51
77003;BME280;65939;50.060;14.288;2023-02-19T07:38:54;97015.34;;;9.75;78.06
77003;BME280;65939;50.060;14.288;2023-02-19T07:41:00;97018.59;;;9.77;77.94
77003;BME280;65939;50.060;14.288;2023-02-19T07:43:01;97013.38;;;9.77;77.73
77003;BME280;65939;50.060;14.288;2023-02-19T07:45:02;97018.44;;;9.79;77.85
77003;BME280;65939;50.060;14.288;2023-02-19T07:47:02;97026.78;;;9.82;78.52
77003;BME280;65939;50.060;14.288;2023-02-19T07:49:03;97027.09;;;9.88;77.94
77003;BME280;65939;50.060;14.288;2023-02-19T07:51:06;97038.03;;;9.91;78.05
77003;BME280;65939;50.060;14.288;2023-02-19T07:53:06;97048.16;;;9.94;79.04
77003;BME280;65939;50.060;14.288;2023-02-19T07:55:07;97056.91;;;9.85;79.23
77003;BME280;65939;50.060;14.288;2023-02-19T07:57:08;97049.38;;;9.74;79.82
77003;BME280;65939;50.060;14.288;2023-02-19T07:59:08;97062.84;;;9.61;81.26
77003;BME280;65939;50.060;14.288;2023-02-19T08:01:16;97064.50;;;9.36;81.70
77003;BME280;65939;50.060;14.288;2023-02-19T08:03:17;97065.34;;;9.19;83.43
77003;BME280;65939;50.060;14.288;2023-02-19T08:05:18;97079.56;;;9.06;83.87
77003;BME280;65939;50.060;14.288;2023-02-19T08:07:18;97084.66;;;8.90;84.79
77003;BME280;65939;50.060;14.288;2023-02-19T08:09:20;97085.34;;;8.74;85.70
77003;BME280;65939;50.060;14.288;2023-02-19T08:11:20;97078.03;;;8.60;86.62
77003;BME280;65939;50.060;14.288;2023-02-19T08:13:39;97088.16;;;8.45;88.09
77003;BME280;65939;50.060;14.288;2023-02-19T08:15:40;97084.75;;;8.35;87.81
77003;BME280;65939;50.060;14.288;2023-02-19T08:17:40;97089.88;;;8.27;88.87
77003;BME280;65939;50.060;14.288;2023-02-19T08:19:41;97090.31;;;8.22;89.60
77003;BME280;65939;50.060;14.288;2023-02-19T08:21:42;97090.31;;;8.22;90.56
77003;BME280;65939;50.060;14.288;2023-02-19T08:23:43;97096.75;;;8.18;90.30
77003;BME280;65939;50.060;14.288;2023-02-19T08:25:45;97102.28;;;8.15;91.21
77003;BME280;65939;50.060;14.288;2023-02-19T08:27:46;97103.38;;;8.12;91.68
77003;BME280;65939;50.060;14.288;2023-02-19T08:29:46;97106.94;;;8.11;92.04
77003;BME280;65939;50.060;14.288;2023-02-19T08:31:47;97112.16;;;8.11;92.69
77003;BME280;65939;50.060;14.288;2023-02-19T08:33:48;97103.22;;;8.14;93.12
77003;BME280;65939;50.060;14.288;2023-02-19T08:35:48;97103.09;;;8.15;93.18
77003;BME280;65939;50.060;14.288;2023-02-19T08:37:49;97105.53;;;8.17;92.73
77003;BME280;65939;50.060;14.288;2023-02-19T08:39:49;97106.34;;;8.18;92.78
77003;BME280;65939;50.060;14.288;2023-02-19T08:41:50;97101.16;;;8.18;92.55
77003;BME280;65939;50.060;14.288;2023-02-19T08:43:50;97107.47;;;8.15;92.55
77003;BME280;65939;50.060;14.288;2023-02-19T08:45:52;97099.97;;;8.12;92.58
77003;BME280;65939;50.060;14.288;2023-02-19T08:47:54;97107.88;;;8.10;92.97
77003;BME280;65939;50.060;14.288;2023-02-19T08:49:54;97112.53;;;8.16;93.26
77003;BME280;65939;50.060;14.288;2023-02-19T08:51:55;97110.28;;;8.22;94.19
77003;BME280;65939;50.060;14.288;2023-02-19T08:53:55;97115.59;;;8.30;93.69
77003;BME280;65939;50.060;14.288;2023-02-19T08:55:56;97111.59;;;8.35;94.19
77003;BME280;65939;50.060;14.288;2023-02-19T08:57:57;97099.81;;;8.41;93.80
77003;BME280;65939;50.060;14.288;2023-02-19T08:59:58;97112.00;;;8.41;93.20
77003;BME280;65939;50.060;14.288;2023-02-19T09:01:58;97105.84;;;8.42;93.54
77003;BME280;65939;50.060;14.288;2023-02-19T09:03:59;97101.16;;;8.45;93.19
77003;BME280;65939;50.060;14.288;2023-02-19T09:06:00;97094.03;;;8.47;93.47
77003;BME280;65939;50.060;14.288;2023-02-19T09:08:00;97099.91;;;8.49;92.37
77003;BME280;65939;50.060;14.288;2023-02-19T09:10:01;97095.66;;;8.48;92.86
77003;BME280;65939;50.060;14.288;2023-02-19T09:12:04;97101.69;;;8.49;92.71
77003;BME280;65939;50.060;14.288;2023-02-19T09:14:04;97105.91;;;8.50;92.31
77003;BME280;65939;50.060;14.288;2023-02-19T09:16:07;97110.00;;;8.52;93.16
77003;BME280;65939;50.060;14.288;2023-02-19T09:18:07;97111.00;;;8.51;92.29
77003;BME280;65939;50.060;14.288;2023-02-19T09:20:08;97117.28;;;8.49;91.58
77003;BME280;65939;50.060;14.288;2023-02-19T09:22:09;97118.28;;;8.48;92.17
77003;BME280;65939;50.060;14.288;2023-02-19T09:24:10;97117.00;;;8.52;91.47
77003;BME280;65939;50.060;14.288;2023-02-19T09:26:11;97113.72;;;8.50;90.62
77003;BME280;65939;50.060;14.288;2023-02-19T09:28:13;97105.09;;;8.49;90.44
77003;BME280;65939;50.060;14.288;2023-02-19T09:30:13;97116.47;;;8.48;90.63
77003;BME280;65939;50.060;14.288;2023-02-19T09:32:14;97130.19;;;8.50;91.19
77003;BME280;65939;50.060;14.288;2023-02-19T09:34:15;97132.63;;;8.52;90.66
77003;BME280;65939;50.060;14.288;2023-02-19T09:36:16;97128.22;;;8.52;91.40
77003;BME280;65939;50.060;14.288;2023-02-19T09:38:18;97133.44;;;8.52;90.59
77003;BME280;65939;50.060;14.288;2023-02-19T09:40:18;97137.38;;;8.56;90.80
77003;BME280;65939;50.060;14.288;2023-02-19T09:42:23;97138.59;;;8.62;90.97
77003;BME280;65939;50.060;14.288;2023-02-19T09:44:31;97138.72;;;8.60;89.83
77003;BME280;65939;50.060;14.288;2023-02-19T09:46:41;97152.31;;;8.54;90.40
77003;BME280;65939;50.060;14.288;2023-02-19T09:48:42;97145.47;;;8.53;89.94
77003;BME280;65939;50.060;14.288;2023-02-19T09:50:46;97150.66;;;8.53;90.57
77003;BME280;65939;50.060;14.288;2023-02-19T09:52:55;97171.19;;;8.56;89.85
77003;BME280;65939;50.060;14.288;2023-02-19T09:55:02;97156.41;;;8.57;89.82
77003;BME280;65939;50.060;14.288;2023-02-19T09:57:03;97155.00;;;8.62;89.10
77003;BME280;65939;50.060;14.288;2023-02-19T09:59:05;97155.97;;;8.61;88.92
77003;BME280;65939;50.060;14.288;2023-02-19T10:01:11;97154.47;;;8.59;88.99
77003;BME280;65939;50.060;14.288;2023-02-19T10:03:28;97174.78;;;8.55;88.53
77003;BME280;65939;50.060;14.288;2023-02-19T10:05:34;97166.28;;;8.53;89.71
77003;BME280;65939;50.060;14.288;2023-02-19T10:07:41;97170.53;;;8.54;89.56
77003;BME280;65939;50.060;14.288;2023-02-19T10:10:17;97181.88;;;8.53;89.79
77003;BME280;65939;50.060;14.288;2023-02-19T10:12:26;97183.56;;;8.54;89.16
77003;BME280;65939;50.060;14.288;2023-02-19T10:14:39;97187.34;;;8.60;89.65
77003;BME280;65939;50.060;14.288;2023-02-19T10:16:44;97192.41;;;8.61;88.85
77003;BME280;65939;50.060;14.288;2023-02-19T10:18:46;97188.56;;;8.66;88.97
77003;BME280;65939;50.060;14.288;2023-02-19T10:20:47;97192.34;;;8.71;88.87
77003;BME280;65939;50.060;14.288;2023-02-19T10:23:09;97199.31;;;8.71;89.15
77003;BME280;65939;50.060;14.288;2023-02-19T10:25:14;97200.16;;;8.71;88.66
77003;BME280;65939;50.060;14.288;2023-02-19T10:27:15;97201.53;;;8.75;88.89
77003;BME280;65939;50.060;14.288;2023-02-19T10:29:16;97215.47;;;8.74;88.38
77003;BME280;65939;50.060;14.288;2023-02-19T10:31:20;97207.81;;;8.73;87.78
77003;BME280;65939;50.060;14.288;2023-02-19T10:33:22;97201.28;;;8.69;88.51
77003;BME280;65939;50.060;14.288;2023-02-19T10:35:23;97205.97;;;8.65;87.92
77003;BME280;65939;50.060;14.288;2023-02-19T10:37:23;97213.06;;;8.63;88.96
77003;BME280;65939;50.060;14.288;2023-02-19T10:39:44;97220.44;;;8.68;88.37
77003;BME280;65939;50.060;14.288;2023-02-19T10:41:48;97225.13;;;8.64;88.16
77003;BME280;65939;50.060;14.288;2023-02-19T10:43:54;97223.78;;;8.60;88.08
77003;BME280;65939;50.060;14.288;2023-02-19T10:46:00;97227.19;;;8.60;88.14
77003;BME280;65939;50.060;14.288;2023-02-19T10:48:02;97235.97;;;8.59;88.10
77003;BME280;65939;50.060;14.288;2023-02-19T10:50:03;97232.84;;;8.56;87.70
77003;BME280;65939;50.060;14.288;2023-02-19T10:52:23;97230.38;;;8.54;87.99
77003;BME280;65939;50.060;14.288;2023-02-19T10:54:28;97228.44;;;8.56;87.75
77003;BME280;65939;50.060;14.288;2023-02-19T10:56:30;97243.13;;;8.57;88.45
77003;BME280;65939;50.060;14.288;2023-02-19T10:58:32;97238.03;;;8.56;87.65
77003;BME280;65939;50.060;14.288;2023-02-19T11:00:38;97243.25;;;8.56;88.37
77003;BME280;65939;50.060;14.288;2023-02-19T11:02:39;97253.41;;;8.49;87.59
77003;BME280;65939;50.060;14.288;2023-02-19T11:04:40;97259.03;;;8.35;88.17
77003;BME280;65939;50.060;14.288;2023-02-19T11:06:42;97274.81;;;8.24;89.85
77003;BME280;65939;50.060;14.288;2023-02-19T11:08:58;97279.22;;;8.13;90.85
77003;BME280;65939;50.060;14.288;2023-02-19T11:11:00;97292.00;;;7.97;91.85
77003;BME280;65939;50.060;14.288;2023-02-19T11:13:03;97293.25;;;7.74;92.12
77003;BME280;65939;50.060;14.288;2023-02-19T11:15:31;97304.03;;;7.50;94.44
77003;BME280;65939;50.060;14.288;2023-02-19T11:17:32;97308.81;;;7.35;94.36
77003;BME280;65939;50.060;14.288;2023-02-19T11:19:43;97303.31;;;7.28;95.19
77003;BME280;65939;50.060;14.288;2023-02-19T11:21:44;97305.63;;;7.22;95.97
77003;BME280;65939;50.060;14.288;2023-02-19T11:23:45;97302.50;;;7.08;94.63